createdAt,value
2022-10-11T00:01:00.870Z,100699.44
2022-10-11T00:03:29.064Z,100702.91
2022-10-11T00:05:58.157Z,100698.41
2022-10-11T00:08:26.141Z,100682.75
2022-10-11T00:11:13.019Z,100685.34
2022-10-11T00:13:41.123Z,100685.34
2022-10-11T00:16:12.512Z,100674.91
2022-10-11T00:18:41.183Z,100681.69
2022-10-11T00:21:17.161Z,100653.91
2022-10-11T00:23:45.229Z,100653.78
2022-10-11T00:26:14.546Z,100667.59
2022-10-11T00:28:43.439Z,100675.41
2022-10-11T00:31:14.284Z,100665.06
2022-10-11T00:33:44.298Z,100668.53
2022-10-11T00:36:15.184Z,100677.19
2022-10-11T00:38:44.513Z,100678.03
2022-10-11T00:41:15.305Z,100673.53
2022-10-11T00:43:43.898Z,100669.16
2022-10-11T00:46:14.866Z,100671.66
2022-10-11T00:48:50.595Z,100661.94
2022-10-11T00:51:41.575Z,100642.69
2022-10-11T00:54:14.874Z,100637.47
2022-10-11T00:56:44.926Z,100627.34
2022-10-11T00:59:25.524Z,100641.75
2022-10-11T01:01:54.174Z,100633.09
2022-10-11T01:04:42.833Z,100624.41
2022-10-11T01:07:11.820Z,100630.59
2022-10-11T01:09:40.031Z,100621.81
2022-10-11T01:12:20.118Z,100629.53
2022-10-11T01:14:55.769Z,100626.94
2022-10-11T01:18:00.674Z,100621.81
2022-10-11T01:20:44.574Z,100620.75
2022-10-11T01:23:55.859Z,100618.88
2022-10-11T01:26:54.772Z,100612.59
2022-10-11T01:29:38.144Z,100606.31
2022-10-11T01:32:15.958Z,100607.97
2022-10-11T01:35:01.686Z,100598.38
2022-10-11T01:37:47.592Z,100604.31
2022-10-11T01:40:27.538Z,100600.75
2022-10-11T01:42:58.242Z,100573.06
2022-10-11T01:45:27.287Z,100583.81
2022-10-11T01:48:08.680Z,100588.72
2022-10-11T01:50:45.487Z,100570.09
2022-10-11T01:53:25.146Z,100566.19
2022-10-11T01:56:19.164Z,100566.72
2022-10-11T01:59:29.085Z,100568.91
2022-10-11T02:02:18.655Z,100561.56
2022-10-11T02:04:53.391Z,100560.50
2022-10-11T02:07:34.569Z,100556.69
2022-10-11T02:10:29.462Z,100564.81
2022-10-11T02:13:19.597Z,100560.81
2022-10-11T02:15:50.126Z,100564.75
2022-10-11T02:18:24.634Z,100557.38
2022-10-11T02:20:54.477Z,100560.53
2022-10-11T02:23:31.481Z,100557.69
2022-10-11T02:26:01.106Z,100546.25
2022-10-11T02:28:33.134Z,100539.38
2022-10-11T02:31:05.059Z,100547.47
2022-10-11T02:33:41.486Z,100536.88
2022-10-11T02:36:22.912Z,100538.91
2022-10-11T02:38:56.737Z,100540.34
2022-10-11T02:41:32.300Z,100527.88
2022-10-11T02:44:07.827Z,100539.88
2022-10-11T02:46:38.413Z,100530.84
2022-10-11T02:49:09.381Z,100522.63
2022-10-11T02:51:37.393Z,100528.34
2022-10-11T02:54:05.989Z,100529.19
2022-10-11T02:56:34.213Z,100540.91
2022-10-11T02:59:02.497Z,100521.53
2022-10-11T03:01:30.648Z,100523.06
2022-10-11T03:04:03.614Z,100511.16
2022-10-11T03:06:31.716Z,100520.09
2022-10-11T03:08:59.916Z,100489.97
2022-10-11T03:11:28.128Z,100522.09
2022-10-11T03:13:56.352Z,100522.00
2022-10-11T03:16:24.433Z,100512.34
2022-10-11T03:18:55.401Z,100523.28
2022-10-11T03:21:25.660Z,100520.66
2022-10-11T08:56:49.294Z,100493.00
2022-10-11T08:59:33.706Z,100482.19
2022-10-11T09:02:49.173Z,100491.34
2022-10-11T09:05:21.367Z,100476.59
2022-10-11T09:08:19.014Z,100491.94
2022-10-11T09:11:06.416Z,100494.56
2022-10-11T09:14:07.932Z,100513.81
2022-10-11T09:16:59.221Z,100517.28
2022-10-11T09:19:52.389Z,100510.25
2022-10-11T09:22:38.169Z,100523.44
2022-10-11T09:25:06.504Z,100520.84
2022-10-11T09:28:01.706Z,100518.34
2022-10-11T09:30:58.717Z,100531.53
2022-10-11T09:33:49.341Z,100524.63
2022-10-11T09:36:42.350Z,100516.78
2022-10-11T09:39:20.759Z,100524.75
2022-10-11T09:42:06.189Z,100522.25
2022-10-11T09:44:38.971Z,100524.16
2022-10-11T09:47:08.749Z,100533.78
2022-10-11T09:49:45.631Z,100528.78
2022-10-11T09:52:18.298Z,100540.19
2022-10-11T09:55:06.967Z,100512.53
2022-10-11T09:57:37.024Z,100539.38
2022-10-11T10:00:34.471Z,100536.97
2022-10-11T10:03:05.353Z,100538.97
2022-10-11T10:05:41.030Z,100534.69
2022-10-11T10:08:12.077Z,100543.25
2022-10-11T10:11:23.411Z,100545.84
2022-10-11T10:13:59.782Z,100537.41
2022-10-11T10:16:33.447Z,100552.03
2022-10-11T10:19:05.067Z,100543.34
2022-10-11T10:21:44.388Z,100539.91
2022-10-11T10:24:35.854Z,100544.19
2022-10-11T10:27:09.841Z,100552.97
2022-10-11T10:29:38.844Z,100552.97
2022-10-11T10:32:27.984Z,100553.81
2022-10-11T10:35:04.046Z,100559.06
2022-10-11T10:37:58.090Z,100565.22
2022-10-11T10:40:44.571Z,100564.28
2022-10-11T10:43:18.991Z,100556.56
2022-10-11T10:46:05.654Z,100568.78
2022-10-11T10:49:34.892Z,100580.94
2022-10-11T10:53:03.578Z,100574.13
2022-10-11T10:55:45.308Z,100574.97
2022-10-11T10:58:26.075Z,100584.72
2022-10-11T11:01:03.072Z,100585.66
2022-10-11T11:03:43.926Z,100573.41
2022-10-11T11:06:40.413Z,100591.13
2022-10-11T11:09:15.270Z,100577.94
2022-10-11T11:12:11.898Z,100575.66
2022-10-11T11:14:49.283Z,100592.19
2022-10-11T11:17:45.341Z,100576.34
2022-10-11T11:20:34.332Z,100598.34
2022-10-11T11:23:12.650Z,100592.41
2022-10-11T11:25:55.257Z,100591.56
2022-10-11T11:29:06.924Z,100592.53
2022-10-11T11:32:21.193Z,100592.53
2022-10-11T11:34:55.728Z,100607.38
2022-10-11T11:37:32.952Z,100599.41
2022-10-11T11:40:17.334Z,100597.75
2022-10-11T11:42:53.281Z,100595.13
2022-10-11T11:45:24.068Z,100601.31
2022-10-11T11:48:01.264Z,100597.47
2022-10-11T11:50:36.187Z,100604.88
2022-10-11T11:53:12.084Z,100599.75
2022-10-11T11:55:53.106Z,100605.09
2022-10-11T11:58:45.988Z,100599.38
2022-10-11T12:01:30.263Z,100620.69
2022-10-11T12:04:10.314Z,100611.16
2022-10-11T12:06:47.904Z,100617.34
2022-10-11T12:09:27.590Z,100619.00
2022-10-11T12:12:02.305Z,100621.63
2022-10-11T12:14:40.260Z,100621.72
2022-10-11T12:17:23.578Z,100611.63
2022-10-11T12:20:14.809Z,100610.44
2022-10-11T12:23:01.713Z,100618.28
2022-10-11T12:25:31.163Z,100611.28
2022-10-11T12:28:01.890Z,100618.63
2022-10-11T12:30:49.032Z,100629.69
2022-10-11T12:33:25.208Z,100636.47
2022-10-11T12:35:55.990Z,100631.25
2022-10-11T12:38:29.373Z,100599.53
2022-10-11T12:41:23.202Z,100626.13
2022-10-11T12:43:51.154Z,100626.97
2022-10-11T12:46:34.024Z,100624.47
2022-10-11T12:49:17.756Z,100628.84
2022-10-11T12:51:55.961Z,100633.25
2022-10-11T12:54:41.722Z,100628.13
2022-10-11T12:57:13.669Z,100621.22
2022-10-11T12:59:46.016Z,100629.91
2022-10-11T13:02:43.789Z,100631.81
2022-10-11T13:05:49.727Z,100630.03
2022-10-11T13:08:29.441Z,100613.94
2022-10-11T13:11:03.925Z,100635.25
2022-10-11T13:13:45.139Z,100637.03
2022-10-11T13:16:20.216Z,100633.47
2022-10-11T13:18:58.350Z,100643.22
2022-10-11T13:21:33.641Z,100643.09
2022-10-11T13:24:24.364Z,100638.81
2022-10-11T13:26:56.470Z,100644.03
2022-10-11T13:29:45.988Z,100645.81
2022-10-11T13:32:24.823Z,100646.66
2022-10-11T13:35:07.633Z,100655.44
2022-10-11T13:37:45.903Z,100669.34
2022-10-11T13:40:16.586Z,100668.53
2022-10-11T13:42:46.046Z,100674.59
2022-10-11T13:45:16.901Z,100679.81
2022-10-11T13:47:47.975Z,100668.97
2022-10-11T13:50:27.035Z,100684.31
2022-10-11T13:53:06.949Z,100686.09
2022-10-11T13:55:48.233Z,100689.53
2022-10-11T13:58:26.967Z,100697.50
2022-10-11T14:00:59.610Z,100690.81
2022-10-11T14:03:46.348Z,100709.84
2022-10-11T14:06:14.354Z,100700.66
2022-10-11T14:08:51.501Z,100697.72
2022-10-11T14:11:35.441Z,100708.19
2022-10-11T14:14:29.263Z,100702.94
2022-10-11T14:17:13.555Z,100701.38
2022-10-11T14:19:42.834Z,100709.13
2022-10-11T14:22:17.149Z,100712.78
2022-10-11T14:24:49.234Z,100719.69
2022-10-11T14:27:23.932Z,100714.47
2022-10-11T14:30:19.832Z,100704.94
2022-10-11T14:32:42.965Z,100694.69
2022-10-11T14:35:24.868Z,100708.50
2022-10-11T14:37:54.962Z,100703.50
2022-10-11T14:40:30.199Z,100702.53
2022-10-11T14:42:58.751Z,100694.91
2022-10-11T14:45:26.991Z,100693.44
2022-10-11T14:47:56.577Z,100702.88
2022-10-11T14:50:52.070Z,100712.28
2022-10-11T14:53:20.145Z,100716.66
2022-10-11T14:55:48.924Z,100694.47
2022-10-11T14:58:19.593Z,100705.56
2022-10-11T15:00:47.826Z,100694.69
2022-10-11T15:03:15.852Z,100708.94
2022-10-11T15:05:43.967Z,100706.44
2022-10-11T15:08:13.332Z,100713.41
2022-10-11T15:10:42.208Z,100694.38
2022-10-11T15:13:10.979Z,100721.47
2022-10-11T15:15:41.843Z,100707.78
2022-10-11T15:18:14.263Z,100715.59
2022-10-11T15:20:46.402Z,100718.34
2022-10-11T15:23:14.831Z,100702.47
2022-10-11T15:25:43.453Z,100720.44
2022-10-11T15:28:36.110Z,100720.63
2022-10-11T15:31:04.266Z,100712.59
2022-10-11T15:33:32.447Z,100729.84
2022-10-11T15:36:00.619Z,100683.69
2022-10-11T15:38:28.690Z,100717.94
2022-10-11T15:40:56.748Z,100725.03
2022-10-11T15:43:26.507Z,100694.22
2022-10-11T15:45:55.241Z,100722.63
2022-10-11T15:48:26.933Z,100716.78
2022-10-11T15:50:56.711Z,100718.69
2022-10-11T15:53:29.367Z,100714.38
2022-10-11T15:56:05.511Z,100717.94
2022-10-11T15:58:37.136Z,100712.00
2022-10-11T16:01:15.613Z,100701.53
2022-10-11T16:03:44.064Z,100707.69
2022-10-11T16:06:12.999Z,100696.72
2022-10-11T16:08:41.795Z,100695.69
2022-10-11T16:11:10.829Z,100692.13
2022-10-11T16:13:40.068Z,100702.47
2022-10-11T16:16:10.169Z,100693.38
2022-10-11T16:18:39.072Z,100709.69
2022-10-11T16:21:10.101Z,100701.97
2022-10-11T16:23:39.899Z,100714.19
2022-10-11T16:26:12.493Z,100711.00
2022-10-11T16:28:40.828Z,100711.75
2022-10-11T16:31:19.022Z,100715.31
2022-10-11T16:33:47.434Z,100705.06
2022-10-11T16:36:33.184Z,100707.88
2022-10-11T16:39:03.802Z,100692.84
2022-10-11T16:41:31.873Z,100689.59
2022-10-11T16:44:00.174Z,100708.19
2022-10-11T16:46:28.152Z,100701.28
2022-10-11T16:48:56.793Z,100673.63
2022-10-11T16:51:26.555Z,100693.69
2022-10-11T16:53:54.577Z,100691.91
2022-10-11T16:56:25.605Z,100691.91
2022-10-11T16:58:56.058Z,100690.31
2022-10-11T17:01:24.423Z,100682.69
2022-10-11T17:03:53.487Z,100688.75
2022-10-11T17:06:21.741Z,100692.94
2022-10-11T17:08:50.600Z,100687.72
2022-10-11T17:11:19.532Z,100681.66
2022-10-11T17:13:47.659Z,100690.44
2022-10-11T17:16:17.026Z,100684.38
2022-10-11T17:18:45.058Z,100687.94
2022-10-11T17:21:17.243Z,100678.53
2022-10-11T17:23:47.368Z,100680.94
2022-10-11T17:26:19.225Z,100676.03
2022-10-11T17:28:48.305Z,100659.63
2022-10-11T17:31:16.597Z,100661.09
2022-10-11T17:33:44.595Z,100672.88
2022-10-11T17:36:39.537Z,100667.56
2022-10-11T17:39:13.545Z,100655.34
2022-10-11T17:41:42.735Z,100667.56
2022-10-11T17:44:11.739Z,100674.47
2022-10-11T17:46:40.673Z,100671.00
2022-10-11T17:49:09.502Z,100631.63
2022-10-11T17:51:40.292Z,100674.47
2022-10-11T17:54:13.444Z,100673.72
2022-10-11T17:56:42.703Z,100667.66
2022-10-11T17:59:17.574Z,100668.72
2022-10-11T18:01:45.599Z,100664.31
2022-10-11T18:04:17.236Z,100667.03
2022-10-11T18:06:47.576Z,100661.81
2022-10-11T18:09:18.793Z,100651.59
2022-10-11T18:11:48.247Z,100654.94
2022-10-11T18:14:16.695Z,100654.00
2022-10-11T18:16:44.604Z,100656.59
2022-10-11T18:19:14.512Z,100654.81
2022-10-11T18:21:44.863Z,100650.44
2022-10-11T18:24:17.697Z,100647.94
2022-10-11T18:26:47.170Z,100593.59
2022-10-11T18:29:17.325Z,100651.59
2022-10-11T18:31:45.498Z,100640.63
2022-10-11T18:34:14.490Z,100647.31
2022-10-11T18:36:43.350Z,100639.78
2022-10-11T18:39:14.875Z,100643.13
2022-10-11T18:41:45.024Z,100638.22
2022-10-11T18:44:19.589Z,100642.50
2022-10-11T18:46:47.560Z,100635.59
2022-10-11T18:49:15.723Z,100630.06
2022-10-11T18:51:47.253Z,100631.75
2022-10-11T18:54:20.101Z,100638.00
2022-10-11T18:56:50.235Z,100637.38
2022-10-11T18:59:18.305Z,100630.59
2022-10-11T19:01:46.771Z,100630.69
2022-10-11T19:04:19.235Z,100636.00
2022-10-11T19:06:50.022Z,100619.69
2022-10-11T19:09:24.976Z,100619.06
2022-10-11T19:11:58.740Z,100586.25
2022-10-11T19:14:30.766Z,100625.63
2022-10-11T19:16:58.924Z,100626.78
2022-10-11T19:19:30.931Z,100634.06
2022-10-11T19:21:59.469Z,100638.56
2022-10-11T19:24:30.840Z,100628.31
2022-10-11T19:27:02.501Z,100624.44
2022-10-11T19:29:31.102Z,100632.28
2022-10-11T19:32:01.357Z,100633.47
2022-10-11T19:34:33.131Z,100624.28
2022-10-11T19:37:05.367Z,100619.53
2022-10-11T19:39:51.785Z,100624.03
2022-10-11T19:42:19.719Z,100608.78
2022-10-11T19:44:47.644Z,100624.84
2022-10-11T19:47:17.821Z,100612.22
2022-10-11T19:49:45.750Z,100619.00
2022-10-11T19:52:29.700Z,100605.53
2022-10-11T19:54:59.257Z,100614.81
2022-10-11T19:57:27.257Z,100610.66
2022-10-11T19:59:55.211Z,100618.56
2022-10-11T20:02:24.137Z,100614.28
2022-10-11T20:04:53.153Z,100607.41
2022-10-11T20:07:21.941Z,100603.22
2022-10-11T20:09:56.250Z,100598.22
2022-10-11T20:12:24.410Z,100599.16
2022-10-11T20:14:52.323Z,100596.75
2022-10-11T20:17:20.485Z,100597.88
2022-10-11T20:19:48.483Z,100596.28
2022-10-11T20:22:16.518Z,100601.59
2022-10-11T20:24:44.792Z,100603.38
2022-10-11T20:27:13.081Z,100595.66
2022-10-11T20:29:41.066Z,100598.16
2022-10-11T20:32:09.246Z,100596.50
2022-10-11T20:34:40.068Z,100594.00
2022-10-11T20:37:07.973Z,100596.06
2022-10-11T20:39:37.032Z,100603.69
2022-10-11T20:42:05.081Z,100596.34
2022-10-11T20:44:33.256Z,100599.78
2022-10-11T20:47:04.077Z,100600.72
2022-10-11T20:49:32.848Z,100596.53
2022-10-11T20:52:02.145Z,100596.06
2022-10-11T20:54:31.230Z,100591.25
2022-10-11T20:56:59.756Z,100604.56
2022-10-11T20:59:29.725Z,100608.94
2022-10-11T21:01:57.765Z,100604.56
2022-10-11T21:04:25.724Z,100609.84
2022-10-11T21:06:53.806Z,100598.59
2022-10-11T21:09:21.945Z,100604.75
2022-10-11T21:11:49.903Z,100594.53
2022-10-11T21:14:18.269Z,100600.13
2022-10-11T21:16:46.241Z,100596.31
2022-10-11T21:19:15.938Z,100602.25
2022-10-11T21:21:53.320Z,100606.72
2022-10-11T21:24:22.314Z,100606.81
2022-10-11T21:26:50.520Z,100588.69
2022-10-11T21:29:18.765Z,100585.00
2022-10-11T21:31:46.722Z,100596.16
2022-10-11T21:34:14.943Z,100597.34
2022-10-11T21:36:44.207Z,100560.81
2022-10-11T21:39:12.261Z,100594.53
2022-10-11T21:41:42.984Z,100595.66
2022-10-11T21:44:11.167Z,100575.50
2022-10-11T21:49:29.237Z,100592.22
2022-10-11T21:51:57.869Z,100594.63
2022-10-11T21:54:25.846Z,100581.06
2022-10-11T21:56:55.480Z,100590.16
2022-10-11T21:59:23.548Z,100583.19
2022-10-11T22:01:51.533Z,100577.06
2022-10-11T22:04:20.565Z,100577.06
2022-10-11T22:06:48.593Z,100571.88
2022-10-11T22:09:16.552Z,100570.28
2022-10-11T22:11:46.229Z,100571.94
2022-10-11T22:14:14.154Z,100576.22
2022-10-11T22:16:42.195Z,100574.47
2022-10-11T22:19:11.783Z,100581.44
2022-10-11T22:21:44.752Z,100585.81
2022-10-11T22:24:13.360Z,100573.72
2022-10-11T22:26:41.511Z,100582.19
2022-10-11T22:29:09.629Z,100570.84
2022-10-11T22:31:37.694Z,100578.66
2022-10-11T22:34:05.829Z,100585.53
2022-10-11T22:36:34.406Z,100586.00
2022-10-11T22:39:08.200Z,100589.25
2022-10-11T22:41:53.896Z,100575.59
2022-10-11T22:44:22.811Z,100577.91
2022-10-11T22:46:50.841Z,100590.09
2022-10-11T22:49:18.993Z,100585.63
2022-10-11T22:51:50.186Z,100579.69
2022-10-11T22:54:18.100Z,100579.59
2022-10-11T22:56:47.235Z,100590.09
2022-10-11T22:59:15.195Z,100581.56
2022-10-11T23:02:01.639Z,100570.94
2022-10-11T23:04:29.676Z,100589.34
2022-10-11T23:07:01.268Z,100584.16
2022-10-11T23:09:34.858Z,100573.66
2022-10-11T23:12:02.798Z,100579.69
2022-10-11T23:14:30.700Z,100588.34
2022-10-11T23:16:58.977Z,100577.09
2022-10-11T23:19:26.981Z,100583.13
2022-10-11T23:21:55.007Z,100587.41
2022-10-11T23:24:24.713Z,100589.06
2022-10-11T23:26:52.651Z,100580.34
2022-10-11T23:29:20.523Z,100596.88
2022-10-11T23:31:51.145Z,100587.59
2022-10-11T23:34:19.254Z,100572.16
2022-10-11T23:36:47.241Z,100580.63
2022-10-11T23:39:18.187Z,100571.31
2022-10-11T23:41:46.153Z,100595.41
2022-10-11T23:44:14.063Z,100584.16
2022-10-11T23:46:42.245Z,100587.59
2022-10-11T23:49:10.272Z,100585.09
2022-10-11T23:51:38.277Z,100579.03
2022-10-11T23:54:09.381Z,100578.94
2022-10-11T23:56:37.348Z,100579.97
2022-10-11T23:59:05.373Z,100590.28
